Time;durP1;ratioP1;P1;durP2;ratioP2;P2;SDS_P1;SDS_P2;PMS_P1;PMS_P2;Temp;Humidity;BMP_temperature;BMP_pressure;BME280_temperature;BME280_humidity;BME280_pressure;Samples;Min_cycle;Max_cycle;Signal;HPM_P1;HPM_P2
2022/01/27 00:01:55;;;;;;;;;;;3.60;99.90;;;;;;6028168;23;19910;-91
2022/01/27 00:04:34;;;;;;;;;;;3.60;99.90;;;;;;6013277;23;21742;-92
2022/01/27 00:07:01;;;;;;;;;;;3.60;99.90;;;;;;6049970;23;19920;-91
2022/01/27 00:09:50;;;;;;;;;;;3.50;99.90;;;;;;6051957;23;20532;-93
2022/01/27 00:12:18;;;;;;;;;;;3.50;99.90;;;;;;6033229;23;19913;-91
2022/01/27 00:14:57;;;;;;;;;;;3.50;99.90;;;;;;6156724;23;19932;-92
2022/01/27 00:17:30;;;;;;;;;;;3.50;99.90;;;;;;6091000;23;19913;-92
2022/01/27 00:19:58;;;;;;;;;;;3.40;99.90;;;;;;6122613;23;19975;-93
2022/01/27 00:22:27;;;;;;;;;;;3.50;99.90;;;;;;6115785;23;19932;-92
2022/01/27 00:24:53;;;;;;;;;;;3.40;99.90;;;;;;6115836;23;19917;-92
2022/01/27 00:27:18;;;;;;;;;;;3.40;99.90;;;;;;6115097;23;19920;-92
2022/01/27 00:29:44;;;;;;;;;;;3.40;99.90;;;;;;6115686;23;20003;-92
2022/01/27 00:32:10;;;;;;;;;;;3.40;99.90;;;;;;6125062;23;19931;-92
2022/01/27 00:34:35;;;;;;;;;;;3.40;99.90;;;;;;6109773;23;20551;-92
2022/01/27 00:37:08;;;;;;;;;;;3.40;99.90;;;;;;6134109;23;19912;-92
2022/01/27 00:39:34;;;;;;;;;;;3.40;99.90;;;;;;6101226;23;19912;-92
2022/01/27 00:44:48;;;;;;;;;;;3.50;99.90;;;;;;6112010;23;19917;-92
2022/01/27 00:47:14;;;;;;;;;;;3.40;99.90;;;;;;6111638;23;20254;-93
2022/01/27 00:49:39;;;;;;;;;;;3.40;99.90;;;;;;6112543;23;19913;-90
2022/01/27 00:52:14;;;;;;;;;;;3.40;99.90;;;;;;6111853;23;19920;-91
2022/01/27 00:54:44;;;;;;;;;;;3.40;99.90;;;;;;6122369;23;19908;-92
2022/01/27 00:57:30;;;;;;;;;;;3.40;99.90;;;;;;6113249;23;19933;-92
2022/01/27 01:00:00;;;;;;;;;;;3.40;99.90;;;;;;6099015;23;19912;-91
2022/01/27 01:02:46;;;;;;;;;;;3.40;99.90;;;;;;6108430;23;20170;-91
2022/01/27 01:07:41;;;;;;;;;;;3.40;99.90;;;;;;6145369;23;20300;-90
2022/01/27 01:14:03;;;;;;;;;;;3.40;99.90;;;;;;6112439;23;19920;-91
2022/01/27 01:15:58;;;;;;;;;;;3.50;99.90;;;;;;6110331;23;19913;-91
2022/01/27 01:34:30;;;;;;;;;;;3.50;99.90;;;;;;6162373;23;20578;-91
2022/01/27 01:37:07;;;;;;;;;;;3.50;99.90;;;;;;6118583;23;19987;-91
2022/01/27 01:39:35;;;;;;;;;;;3.50;99.90;;;;;;6118581;23;19913;-91
2022/01/27 01:42:10;;;;;;;;;;;3.50;99.90;;;;;;6106262;23;19967;-92
2022/01/27 01:44:36;;;;;;;;;;;3.50;99.90;;;;;;6119229;23;19917;-90
2022/01/27 01:47:04;;;;;;;;;;;3.50;99.90;;;;;;6117928;23;19963;-90
2022/01/27 01:49:30;;;;;;;;;;;3.50;99.90;;;;;;6119126;23;19932;-91
2022/01/27 01:51:57;;;;;;;;;;;3.60;99.90;;;;;;6142696;23;19935;-92
2022/01/27 01:54:24;;;;;;;;;;;3.60;99.90;;;;;;6118152;23;19924;-91
2022/01/27 01:56:53;;;;;;;;;;;3.60;99.90;;;;;;6116601;23;19912;-92
2022/01/27 01:59:23;;;;;;;;;;;3.50;99.90;;;;;;6096820;23;19919;-91
2022/01/27 02:01:49;;;;;;;;;;;3.60;99.90;;;;;;6112353;23;19995;-92
2022/01/27 02:04:22;;;;;;;;;;;3.50;99.90;;;;;;6145324;23;19999;-91
2022/01/27 02:07:00;;;;;;;;;;;3.60;99.90;;;;;;6115548;23;19944;-92
2022/01/27 02:18:02;;;;;;;;;;;3.60;99.90;;;;;;6147018;23;20259;-91
2022/01/27 02:20:32;;;;;;;;;;;3.60;99.90;;;;;;6095879;23;20222;-91
2022/01/27 02:22:57;;;;;;;;;;;3.60;99.90;;;;;;6140719;23;19913;-91
2022/01/27 02:25:24;;;;;;;;;;;3.60;99.90;;;;;;6108281;23;19988;-91
2022/01/27 02:27:54;;;;;;;;;;;3.70;99.90;;;;;;6124149;23;20372;-91
2022/01/27 02:30:19;;;;;;;;;;;3.60;99.90;;;;;;6165270;23;19919;-91
2022/01/27 02:32:57;;;;;;;;;;;;;;;;;;;;;
2022/01/27 02:35:26;;;;;;;;;;;3.70;99.90;;;;;;6128022;23;20589;-92
2022/01/27 02:37:52;;;;;;;;;;;3.70;99.90;;;;;;6138910;23;20295;-92
2022/01/27 02:40:19;;;;;;;;;;;3.70;99.90;;;;;;6152664;23;20016;-92
2022/01/27 02:42:55;;;;;;;;;;;3.70;99.90;;;;;;6099620;23;19944;-92
2022/01/27 02:45:31;;;;;;;;;;;3.80;99.90;;;;;;6129516;23;20320;-91
2022/01/27 02:47:56;;;;;;;;;;;3.70;99.90;;;;;;6117304;23;19918;-90
2022/01/27 02:50:22;;;;;;;;;;;3.80;99.90;;;;;;6097056;23;20042;-91
2022/01/27 02:52:56;;;;;;;;;;;3.80;99.90;;;;;;6110196;23;20355;-91
2022/01/27 02:55:22;;;;;;;;;;;3.80;99.90;;;;;;6116235;23;19923;-91
2022/01/27 02:57:57;;;;;;;;;;;;;;;;;;;;;
2022/01/27 03:00:26;;;;;;;;;;;3.80;99.90;;;;;;6145093;23;19919;-90
2022/01/27 03:02:51;;;;;;;;;;;3.80;99.90;;;;;;6144595;23;19924;-90
2022/01/27 03:05:18;;;;;;;;;;;3.80;99.90;;;;;;6104788;23;19912;-91
2022/01/27 03:07:47;;;;;;;;;;;3.80;99.90;;;;;;6143462;23;19992;-90
2022/01/27 03:10:17;;;;;;;;;;;3.80;99.90;;;;;;6117785;23;19915;-89
2022/01/27 03:12:42;;;;;;;;;;;3.80;99.90;;;;;;6117180;23;19939;-90
2022/01/27 03:15:10;;;;;;;;;;;3.80;99.90;;;;;;6143630;23;19932;-89
2022/01/27 03:17:35;;;;;;;;;;;3.80;99.90;;;;;;6117141;23;19912;-90
2022/01/27 03:20:01;;;;;;;;;;;3.80;99.90;;;;;;6118547;23;19955;-91
2022/01/27 03:22:26;;;;;;;;;;;3.80;99.90;;;;;;6116712;23;20146;-90
2022/01/27 03:24:54;;;;;;;;;;;3.80;99.90;;;;;;6118421;23;19913;-90
2022/01/27 03:27:25;;;;;;;;;;;3.80;99.90;;;;;;6121473;23;19912;-90
2022/01/27 03:29:52;;;;;;;;;;;3.80;99.90;;;;;;6144883;23;19923;-90
2022/01/27 03:32:19;;;;;;;;;;;3.80;99.90;;;;;;6101552;23;19924;-91
2022/01/27 03:34:45;;;;;;;;;;;3.80;99.90;;;;;;6109344;23;20371;-92
2022/01/27 03:37:11;;;;;;;;;;;3.80;99.90;;;;;;6116954;23;20329;-90
2022/01/27 03:39:38;;;;;;;;;;;3.80;99.90;;;;;;6104098;23;19975;-90
2022/01/27 03:42:05;;;;;;;;;;;3.90;99.90;;;;;;6138374;23;19913;-90
2022/01/27 03:44:33;;;;;;;;;;;3.80;99.90;;;;;;6100624;23;19920;-90
2022/01/27 03:46:59;;;;;;;;;;;3.90;99.90;;;;;;6096873;23;19912;-89
2022/01/27 03:49:24;;;;;;;;;;;3.80;99.90;;;;;;6115143;23;19920;-90
2022/01/27 03:51:50;;;;;;;;;;;3.80;99.90;;;;;;6115032;23;19908;-91
2022/01/27 03:54:16;;;;;;;;;;;3.90;99.90;;;;;;6115892;23;19940;-90
2022/01/27 03:56:42;;;;;;;;;;;3.90;99.90;;;;;;6115381;23;19967;-90
2022/01/27 03:59:09;;;;;;;;;;;3.90;99.90;;;;;;6141345;23;20365;-90
2022/01/27 04:01:35;;;;;;;;;;;3.90;99.90;;;;;;6106363;23;19916;-89
2022/01/27 04:04:01;;;;;;;;;;;3.90;99.90;;;;;;6158429;23;20325;-90
2022/01/27 04:06:40;;;;;;;;;;;3.90;99.90;;;;;;6131514;23;19912;-90
2022/01/27 04:09:08;;;;;;;;;;;4.00;99.90;;;;;;6106987;23;19909;-89
2022/01/27 04:11:36;;;;;;;;;;;4.00;99.90;;;;;;6088863;23;20047;-90
2022/01/27 04:14:04;;;;;;;;;;;3.90;99.90;;;;;;6098163;23;20276;-89
2022/01/27 04:16:30;;;;;;;;;;;3.90;99.90;;;;;;6107402;23;19909;-92
2022/01/27 04:18:58;;;;;;;;;;;4.00;99.90;;;;;;6097806;23;20347;-92
2022/01/27 04:21:27;;;;;;;;;;;4.00;99.90;;;;;;6148151;23;19980;-91
2022/01/27 04:23:53;;;;;;;;;;;4.00;99.90;;;;;;6087578;23;19925;-94
2022/01/27 04:26:28;;;;;;;;;;;4.10;99.90;;;;;;6095106;23;20018;-92
2022/01/27 04:28:54;;;;;;;;;;;4.10;99.90;;;;;;6101151;23;19939;-91
2022/01/27 04:31:22;;;;;;;;;;;4.20;99.90;;;;;;6110186;23;19916;-91
2022/01/27 04:33:55;;;;;;;;;;;4.20;99.90;;;;;;6077135;23;19920;-92
2022/01/27 04:36:29;;;;;;;;;;;4.20;99.90;;;;;;6061831;23;20177;-92
2022/01/27 04:39:11;;;;;;;;;;;4.20;99.90;;;;;;6073901;23;19939;-93
2022/01/27 04:41:48;;;;;;;;;;;4.30;99.90;;;;;;6055329;23;20609;-91
2022/01/27 04:44:38;;;;;;;;;;;4.30;99.90;;;;;;6098419;23;19928;-93
2022/01/27 04:47:18;;;;;;;;;;;4.30;99.90;;;;;;6067500;23;20017;-92
2022/01/27 04:49:54;;;;;;;;;;;4.30;99.90;;;;;;6063196;23;19913;-91
2022/01/27 04:52:27;;;;;;;;;;;4.30;99.90;;;;;;6103127;23;19968;-90
2022/01/27 04:55:12;;;;;;;;;;;4.30;99.90;;;;;;6065281;23;19968;-94
2022/01/27 04:57:44;;;;;;;;;;;4.30;99.90;;;;;;6034765;23;19912;-91
2022/01/27 05:00:16;;;;;;;;;;;4.30;99.90;;;;;;6074851;23;20003;-91
2022/01/27 05:03:10;;;;;;;;;;;;;;;;;;;;;
2022/01/27 05:05:37;;;;;;;;;;;4.30;99.90;;;;;;6106840;23;20508;-90
2022/01/27 05:08:04;;;;;;;;;;;4.30;99.90;;;;;;6126595;23;20222;-89
2022/01/27 05:13:56;;;;;;;;;;;4.30;99.90;;;;;;6012846;23;20415;-91
2022/01/27 05:17:25;;;;;;;;;;;;;;;;;;;;;
2022/01/27 05:19:47;;;;;;;;;;;4.30;99.90;;;;;;6040285;23;19940;-91
2022/01/27 05:22:27;;;;;;;;;;;4.40;99.90;;;;;;6051458;23;19913;-94
2022/01/27 05:28:36;;;;;;;;;;;4.40;99.90;;;;;;6096050;23;20334;-93
2022/01/27 05:31:12;;;;;;;;;;;4.40;99.90;;;;;;6016561;23;20389;-92
2022/01/27 05:33:49;;;;;;;;;;;4.30;99.90;;;;;;6054970;23;19917;-92
2022/01/27 05:36:15;;;;;;;;;;;4.40;99.90;;;;;;6073632;23;19919;-90
2022/01/27 05:38:46;;;;;;;;;;;4.40;99.90;;;;;;6082559;23;20005;-91
2022/01/27 05:41:13;;;;;;;;;;;4.30;99.90;;;;;;6071898;23;19920;-91
2022/01/27 05:43:38;;;;;;;;;;;4.40;99.90;;;;;;6087069;23;20017;-88
2022/01/27 05:46:04;;;;;;;;;;;4.40;99.90;;;;;;6086642;23;19940;-90
2022/01/27 05:48:30;;;;;;;;;;;4.30;99.90;;;;;;6135454;23;19913;-90
2022/01/27 05:50:56;;;;;;;;;;;4.30;99.90;;;;;;6095973;23;19936;-92
2022/01/27 05:53:23;;;;;;;;;;;4.30;99.90;;;;;;6141285;23;19940;-91
2022/01/27 05:55:48;;;;;;;;;;;4.30;99.90;;;;;;6099708;23;20320;-89
2022/01/27 05:58:19;;;;;;;;;;;4.30;99.90;;;;;;6091302;23;19951;-94
2022/01/27 06:00:45;;;;;;;;;;;4.30;99.90;;;;;;6096423;23;19984;-91
2022/01/27 06:03:13;;;;;;;;;;;4.30;99.90;;;;;;6098676;23;19937;-94
2022/01/27 06:05:41;;;;;;;;;;;4.30;99.90;;;;;;6089732;23;20029;-92
2022/01/27 06:08:07;;;;;;;;;;;4.30;99.90;;;;;;6126816;23;19912;-90
2022/01/27 06:10:33;;;;;;;;;;;4.40;99.90;;;;;;6122003;23;20219;-91
2022/01/27 06:12:58;;;;;;;;;;;4.30;99.90;;;;;;6114237;23;20274;-90
2022/01/27 06:15:28;;;;;;;;;;;4.30;99.90;;;;;;6124388;23;19912;-92
2022/01/27 06:17:54;;;;;;;;;;;4.30;99.90;;;;;;6115419;23;19923;-92
2022/01/27 06:20:19;;;;;;;;;;;4.30;99.90;;;;;;6097701;23;19932;-90
2022/01/27 06:22:45;;;;;;;;;;;4.20;99.90;;;;;;6114408;23;19991;-91
2022/01/27 06:25:13;;;;;;;;;;;4.20;99.90;;;;;;6116969;23;19923;-89
2022/01/27 06:27:39;;;;;;;;;;;4.20;99.90;;;;;;6117876;23;19919;-90
2022/01/27 06:30:08;;;;;;;;;;;4.20;99.90;;;;;;6114762;23;19912;-91
2022/01/27 06:32:34;;;;;;;;;;;4.20;99.90;;;;;;6132744;23;19921;-89
2022/01/27 06:35:03;;;;;;;;;;;4.20;99.90;;;;;;6116205;23;20377;-90
2022/01/27 06:37:29;;;;;;;;;;;4.10;99.90;;;;;;6110074;23;19913;-90
2022/01/27 06:39:57;;;;;;;;;;;4.10;99.90;;;;;;6113490;23;20247;-90
2022/01/27 06:42:23;;;;;;;;;;;4.10;99.90;;;;;;6119564;23;19919;-90
2022/01/27 06:44:49;;;;;;;;;;;4.00;99.90;;;;;;6123365;23;19913;-88
2022/01/27 06:47:14;;;;;;;;;;;4.00;99.90;;;;;;6112202;23;19912;-90
2022/01/27 06:49:40;;;;;;;;;;;4.10;99.90;;;;;;6116523;23;19919;-87
2022/01/27 06:52:06;;;;;;;;;;;4.00;99.90;;;;;;6112960;23;19920;-91
2022/01/27 06:54:32;;;;;;;;;;;4.00;99.90;;;;;;6116579;23;19937;-90
2022/01/27 06:56:57;;;;;;;;;;;4.00;99.90;;;;;;6113033;23;19913;-89
2022/01/27 06:59:24;;;;;;;;;;;4.00;99.90;;;;;;6112224;23;20199;-88
2022/01/27 07:01:49;;;;;;;;;;;4.00;99.90;;;;;;6112670;23;19909;-90
2022/01/27 07:04:15;;;;;;;;;;;4.00;99.90;;;;;;6113458;23;19912;-88
2022/01/27 07:06:41;;;;;;;;;;;4.10;99.90;;;;;;6112764;23;19917;-88
2022/01/27 07:09:07;;;;;;;;;;;4.10;99.90;;;;;;6113709;23;20653;-89
2022/01/27 07:11:32;;;;;;;;;;;4.10;99.90;;;;;;6114629;23;19910;-88
2022/01/27 07:14:00;;;;;;;;;;;4.10;99.90;;;;;;6115875;23;19920;-89
2022/01/27 07:16:28;;;;;;;;;;;4.10;99.90;;;;;;6112984;23;20384;-87
2022/01/27 07:18:55;;;;;;;;;;;4.10;99.90;;;;;;6109291;23;20209;-90
2022/01/27 07:21:20;;;;;;;;;;;4.20;99.90;;;;;;6113024;23;20327;-90
2022/01/27 07:23:49;;;;;;;;;;;4.20;99.90;;;;;;6129131;23;19913;-89
2022/01/27 07:26:15;;;;;;;;;;;4.20;99.90;;;;;;6113845;23;19917;-88
2022/01/27 07:28:41;;;;;;;;;;;4.30;99.90;;;;;;6114695;23;19920;-88
2022/01/27 07:31:07;;;;;;;;;;;4.20;99.90;;;;;;6115410;23;20148;-88
2022/01/27 07:33:32;;;;;;;;;;;4.20;99.90;;;;;;6114106;23;20142;-88
2022/01/27 07:35:58;;;;;;;;;;;4.20;99.90;;;;;;6115469;23;19913;-89
2022/01/27 07:38:25;;;;;;;;;;;4.30;99.90;;;;;;6114568;23;19916;-88
2022/01/27 07:40:50;;;;;;;;;;;4.20;99.90;;;;;;6111915;23;20241;-87
2022/01/27 07:43:16;;;;;;;;;;;4.20;99.90;;;;;;6115048;23;19913;-89
2022/01/27 07:45:42;;;;;;;;;;;4.20;99.90;;;;;;6099268;23;20358;-88
2022/01/27 07:48:07;;;;;;;;;;;4.10;99.90;;;;;;6113752;23;20011;-89
2022/01/27 07:50:33;;;;;;;;;;;4.10;99.90;;;;;;6114507;23;19924;-90
2022/01/27 07:52:59;;;;;;;;;;;4.10;99.90;;;;;;6115656;23;19912;-89
2022/01/27 07:55:25;;;;;;;;;;;4.10;99.90;;;;;;6114398;23;21198;-88
2022/01/27 07:57:52;;;;;;;;;;;4.10;99.90;;;;;;6114371;23;19932;-88
2022/01/27 08:00:17;;;;;;;;;;;4.10;99.90;;;;;;6088939;23;19909;-86
2022/01/27 08:02:45;;;;;;;;;;;4.10;99.90;;;;;;6115282;23;19964;-87
2022/01/27 08:05:11;;;;;;;;;;;4.10;99.90;;;;;;6112797;23;19916;-88
2022/01/27 08:07:36;;;;;;;;;;;4.10;99.90;;;;;;6117170;23;19913;-88
2022/01/27 08:10:02;;;;;;;;;;;4.20;99.90;;;;;;6116312;23;20338;-88
2022/01/27 08:12:30;;;;;;;;;;;4.20;99.90;;;;;;6113201;23;19985;-89
2022/01/27 08:14:56;;;;;;;;;;;4.20;99.90;;;;;;6112607;23;20244;-89
2022/01/27 08:17:23;;;;;;;;;;;4.20;99.90;;;;;;6125055;23;19913;-88
2022/01/27 08:19:49;;;;;;;;;;;4.20;99.90;;;;;;6113021;23;19940;-88
2022/01/27 08:22:14;;;;;;;;;;;4.20;99.90;;;;;;6111987;23;20814;-88
2022/01/27 08:24:41;;;;;;;;;;;4.20;99.90;;;;;;6102359;23;19987;-89
2022/01/27 08:27:30;;;;;;;;;;;4.20;99.90;;;;;;6098423;23;19937;-89
2022/01/27 08:30:01;;;;;;;;;;;4.20;99.90;;;;;;6136022;23;20643;-89
2022/01/27 08:35:24;;;;;;;;;;;4.20;99.90;;;;;;6091742;23;19913;-88
2022/01/27 08:37:51;;;;;;;;;;;4.20;99.90;;;;;;6093428;23;20578;-88
2022/01/27 08:40:37;;;;;;;;;;;4.20;99.90;;;;;;6127257;23;19936;-88
2022/01/27 08:43:04;;;;;;;;;;;4.20;99.90;;;;;;6098119;23;19912;-91
2022/01/27 08:45:30;;;;;;;;;;;4.20;99.90;;;;;;6097465;23;20511;-89
2022/01/27 08:47:58;;;;;;;;;;;4.20;99.90;;;;;;6100892;23;19912;-89
2022/01/27 08:50:24;;;;;;;;;;;4.20;99.90;;;;;;6087988;23;19917;-87
2022/01/27 08:52:50;;;;;;;;;;;4.20;99.90;;;;;;6106272;23;20003;-89
2022/01/27 08:55:16;;;;;;;;;;;4.20;99.90;;;;;;6121969;23;19947;-88
2022/01/27 08:57:44;;;;;;;;;;;4.20;99.90;;;;;;6099270;23;19920;-90
2022/01/27 09:03:06;;;;;;;;;;;4.20;99.90;;;;;;6101363;23;20095;-87
2022/01/27 09:05:32;;;;;;;;;;;4.20;99.90;;;;;;6114306;23;19947;-86
2022/01/27 09:07:57;;;;;;;;;;;4.20;99.90;;;;;;6098063;23;19908;-89
2022/01/27 09:10:33;;;;;;;;;;;4.20;99.90;;;;;;6130086;23;19916;-88
2022/01/27 09:12:59;;;;;;;;;;;4.20;99.90;;;;;;6110956;23;19913;-87
2022/01/27 09:15:25;;;;;;;;;;;4.20;99.90;;;;;;6111702;23;19917;-88
2022/01/27 09:17:51;;;;;;;;;;;4.20;99.90;;;;;;6114526;23;19996;-89
2022/01/27 09:20:19;;;;;;;;;;;4.20;99.90;;;;;;6098886;23;19920;-88
2022/01/27 09:22:48;;;;;;;;;;;4.20;99.90;;;;;;6112990;23;19966;-89
2022/01/27 09:25:18;;;;;;;;;;;4.20;99.90;;;;;;6114374;23;19917;-88
2022/01/27 09:27:47;;;;;;;;;;;4.10;99.90;;;;;;6111600;23;19920;-88
2022/01/27 09:30:19;;;;;;;;;;;4.10;99.90;;;;;;6096839;23;20338;-90
2022/01/27 09:32:55;;;;;;;;;;;4.10;99.90;;;;;;6114884;23;19920;-88
2022/01/27 09:35:31;;;;;;;;;;;4.10;99.90;;;;;;6118317;23;19913;-89
2022/01/27 09:38:00;;;;;;;;;;;4.10;99.90;;;;;;6111531;23;19913;-88
2022/01/27 09:40:26;;;;;;;;;;;4.00;99.90;;;;;;6112479;23;20465;-86
2022/01/27 09:42:54;;;;;;;;;;;4.10;99.90;;;;;;6111958;23;20187;-89
2022/01/27 09:45:28;;;;;;;;;;;4.10;99.90;;;;;;6112815;23;19921;-88
2022/01/27 09:48:13;;;;;;;;;;;4.10;99.90;;;;;;6133726;23;20433;-89
2022/01/27 09:51:21;;;;;;;;;;;4.00;99.90;;;;;;6111700;23;20219;-88
2022/01/27 09:53:49;;;;;;;;;;;4.00;99.90;;;;;;6115451;23;19913;-89
2022/01/27 09:56:15;;;;;;;;;;;4.00;99.90;;;;;;6099373;23;19908;-88
2022/01/27 09:58:42;;;;;;;;;;;3.90;99.90;;;;;;6127772;23;20344;-88
2022/01/27 10:01:08;;;;;;;;;;;3.90;99.90;;;;;;6099339;23;19913;-88
2022/01/27 10:03:53;;;;;;;;;;;3.90;99.90;;;;;;6115624;23;19957;-89
2022/01/27 10:06:20;;;;;;;;;;;3.80;99.90;;;;;;6102128;23;19917;-89
2022/01/27 10:09:06;;;;;;;;;;;3.70;99.90;;;;;;6121259;23;19980;-88
2022/01/27 10:11:33;;;;;;;;;;;3.70;99.90;;;;;;6113878;23;19916;-89
2022/01/27 10:13:59;;;;;;;;;;;3.70;99.90;;;;;;6116973;23;20433;-91
2022/01/27 10:16:27;;;;;;;;;;;3.70;99.90;;;;;;6104465;23;21074;-89
2022/01/27 10:19:03;;;;;;;;;;;3.70;99.90;;;;;;6145254;23;19971;-89
2022/01/27 10:21:37;;;;;;;;;;;3.60;99.90;;;;;;6157425;23;20309;-90
2022/01/27 10:24:15;;;;;;;;;;;3.60;99.90;;;;;;6114428;23;19975;-90
2022/01/27 10:26:46;;;;;;;;;;;3.60;99.90;;;;;;6093115;23;19916;-88
2022/01/27 10:29:29;;;;;;;;;;;3.60;99.90;;;;;;6130898;23;19920;-88
2022/01/27 10:32:02;;;;;;;;;;;3.60;99.90;;;;;;6107142;23;19928;-89
2022/01/27 10:34:28;;;;;;;;;;;3.70;99.90;;;;;;6078309;23;19968;-88
2022/01/27 10:36:55;;;;;;;;;;;3.60;99.90;;;;;;6074345;23;20605;-90
2022/01/27 10:39:20;;;;;;;;;;;3.60;99.90;;;;;;6092149;23;19919;-89
2022/01/27 10:42:08;;;;;;;;;;;3.60;99.90;;;;;;6073844;23;19932;-90
2022/01/27 10:44:44;;;;;;;;;;;3.60;99.90;;;;;;6091603;23;19909;-87
2022/01/27 10:47:17;;;;;;;;;;;3.60;99.90;;;;;;6092527;23;19999;-89
2022/01/27 10:49:54;;;;;;;;;;;3.60;99.90;;;;;;6095432;23;20238;-88
2022/01/27 10:52:31;;;;;;;;;;;3.60;99.90;;;;;;6093315;23;19916;-88
2022/01/27 10:54:59;;;;;;;;;;;3.60;99.90;;;;;;6070108;23;19909;-90
2022/01/27 10:57:25;;;;;;;;;;;3.60;99.90;;;;;;6094231;23;19913;-88
2022/01/27 11:00:03;;;;;;;;;;;3.70;99.90;;;;;;6081608;23;20349;-89
2022/01/27 11:02:28;;;;;;;;;;;3.70;99.90;;;;;;6076796;23;19913;-89
2022/01/27 11:04:54;;;;;;;;;;;3.70;99.90;;;;;;6093719;23;19913;-88
2022/01/27 11:07:24;;;;;;;;;;;3.70;99.90;;;;;;6091620;23;20028;-90
2022/01/27 11:09:50;;;;;;;;;;;3.70;99.90;;;;;;6094742;23;20552;-88
2022/01/27 11:12:18;;;;;;;;;;;3.70;99.90;;;;;;6053645;23;19913;-88
2022/01/27 11:14:45;;;;;;;;;;;3.70;99.90;;;;;;6058698;23;19913;-89
2022/01/27 11:17:20;;;;;;;;;;;3.70;99.90;;;;;;6060206;23;20354;-88
2022/01/27 11:28:11;;;;;;;;;;;3.70;99.90;;;;;;6088840;23;19983;-89
2022/01/27 11:30:52;;;;;;;;;;;3.70;99.90;;;;;;6035287;23;19909;-89
2022/01/27 11:33:42;;;;;;;;;;;3.80;99.90;;;;;;6093822;23;20359;-89
2022/01/27 11:36:12;;;;;;;;;;;3.80;99.90;;;;;;6059958;23;20000;-88
2022/01/27 11:38:38;;;;;;;;;;;3.70;99.90;;;;;;6091271;23;20396;-88
2022/01/27 11:41:04;;;;;;;;;;;3.70;99.90;;;;;;6114941;23;20310;-88
2022/01/27 11:43:33;;;;;;;;;;;3.70;99.90;;;;;;6116433;23;19919;-88
2022/01/27 11:46:22;;;;;;;;;;;3.80;99.90;;;;;;6116190;23;19917;-88
2022/01/27 11:48:47;;;;;;;;;;;3.70;99.90;;;;;;6144833;23;20304;-88
2022/01/27 11:51:13;;;;;;;;;;;3.70;99.90;;;;;;6116802;23;19913;-89
2022/01/27 11:53:42;;;;;;;;;;;3.70;99.90;;;;;;6117754;23;20003;-88
2022/01/27 11:56:15;;;;;;;;;;;3.70;99.90;;;;;;6106196;23;19919;-89
2022/01/27 11:58:45;;;;;;;;;;;3.70;99.90;;;;;;6121721;23;19912;-88
2022/01/27 12:01:17;;;;;;;;;;;3.80;99.90;;;;;;6102012;23;19995;-89
2022/01/27 12:04:15;;;;;;;;;;;3.70;99.90;;;;;;6138090;23;19913;-88
2022/01/27 12:06:50;;;;;;;;;;;3.70;99.90;;;;;;6104600;23;20332;-89
2022/01/27 12:09:26;;;;;;;;;;;3.70;99.90;;;;;;6120207;23;19963;-88
2022/01/27 12:11:55;;;;;;;;;;;3.70;99.90;;;;;;6117105;23;19917;-88
2022/01/27 12:14:29;;;;;;;;;;;3.70;99.90;;;;;;6109743;23;19913;-89
2022/01/27 12:17:07;;;;;;;;;;;3.70;99.90;;;;;;6118209;23;20218;-89
2022/01/27 12:19:51;;;;;;;;;;;3.70;99.90;;;;;;6127884;23;19912;-89
2022/01/27 12:22:17;;;;;;;;;;;3.70;99.90;;;;;;6113570;23;19908;-88
2022/01/27 12:24:55;;;;;;;;;;;3.70;99.90;;;;;;6101024;23;19920;-88
2022/01/27 12:27:21;;;;;;;;;;;3.70;99.90;;;;;;6141260;23;20374;-87
2022/01/27 12:29:48;;;;;;;;;;;3.70;99.90;;;;;;6151600;23;19912;-90
2022/01/27 12:32:21;;;;;;;;;;;4.20;99.90;;;;;;6115253;23;20489;-88
2022/01/27 12:34:48;;;;;;;;;;;4.40;99.90;;;;;;6142247;23;19979;-89
2022/01/27 12:37:18;;;;;;;;;;;4.60;99.90;;;;;;6114833;23;19908;-88
2022/01/27 12:39:50;;;;;;;;;;;4.50;99.90;;;;;;6115547;23;19913;-88
2022/01/27 12:42:29;;;;;;;;;;;4.20;99.90;;;;;;6133971;23;19912;-88
2022/01/27 12:44:57;;;;;;;;;;;4.00;99.90;;;;;;6129554;23;19916;-88
2022/01/27 12:47:39;;;;;;;;;;;3.90;99.90;;;;;;6142744;23;20535;-87
2022/01/27 12:50:09;;;;;;;;;;;3.90;99.90;;;;;;6115196;23;19940;-87
2022/01/27 12:52:42;;;;;;;;;;;3.90;99.90;;;;;;6114276;23;19943;-87
2022/01/27 12:55:20;;;;;;;;;;;3.90;99.90;;;;;;6140060;23;19992;-87
2022/01/27 12:57:59;;;;;;;;;;;3.90;99.90;;;;;;6091167;23;20408;-89
2022/01/27 13:00:25;;;;;;;;;;;3.90;99.90;;;;;;6109028;23;19963;-89
2022/01/27 13:03:14;;;;;;;;;;;3.90;99.90;;;;;;6078079;23;19917;-90
2022/01/27 13:05:53;;;;;;;;;;;3.90;99.90;;;;;;6072550;23;19912;-91
2022/01/27 13:08:41;;;;;;;;;;;3.90;99.90;;;;;;6072515;23;20365;-90
2022/01/27 13:11:14;;;;;;;;;;;4.00;99.90;;;;;;6089881;23;19914;-89
2022/01/27 13:14:05;;;;;;;;;;;4.00;99.90;;;;;;6121704;23;20405;-90
2022/01/27 13:17:05;;;;;;;;;;;4.00;99.90;;;;;;6063373;23;19936;-90
2022/01/27 13:19:42;;;;;;;;;;;4.10;99.90;;;;;;6096793;23;19920;-89
2022/01/27 13:25:23;;;;;;;;;;;4.10;99.90;;;;;;6128264;23;19963;-90
2022/01/27 13:31:06;;;;;;;;;;;4.20;99.90;;;;;;6063847;23;20017;-90
2022/01/27 13:33:50;;;;;;;;;;;4.30;99.90;;;;;;6090836;23;19928;-91
2022/01/27 13:36:21;;;;;;;;;;;4.40;99.90;;;;;;6083458;23;19916;-90
2022/01/27 13:41:52;;;;;;;;;;;4.50;99.90;;;;;;6061525;23;19913;-90
2022/01/27 13:44:47;;;;;;;;;;;4.50;99.90;;;;;;6098832;23;20241;-90
2022/01/27 13:47:22;;;;;;;;;;;4.60;99.90;;;;;;6116865;23;19924;-89
2022/01/27 13:50:09;;;;;;;;;;;4.60;99.90;;;;;;6121416;23;19927;-89
2022/01/27 13:52:43;;;;;;;;;;;4.70;99.90;;;;;;6083548;23;19951;-89
2022/01/27 13:55:10;;;;;;;;;;;4.80;99.90;;;;;;6151954;23;19920;-89
2022/01/27 13:57:37;;;;;;;;;;;4.90;99.90;;;;;;6111633;23;19909;-89
2022/01/27 14:00:11;;;;;;;;;;;4.90;99.90;;;;;;6109800;23;19913;-88
2022/01/27 14:02:53;;;;;;;;;;;5.00;99.90;;;;;;6048956;23;19913;-92
2022/01/27 14:05:20;;;;;;;;;;;5.00;99.90;;;;;;6086493;23;19995;-89
2022/01/27 14:07:51;;;;;;;;;;;5.00;99.90;;;;;;6061679;23;20334;-90
2022/01/27 14:10:24;;;;;;;;;;;5.10;99.90;;;;;;6076507;23;19912;-88
2022/01/27 14:12:57;;;;;;;;;;;5.10;99.90;;;;;;6116858;23;19916;-91
2022/01/27 14:15:26;;;;;;;;;;;5.10;99.90;;;;;;6075902;23;19912;-90
2022/01/27 14:18:18;;;;;;;;;;;5.20;99.90;;;;;;6120743;23;19975;-89
2022/01/27 14:20:55;;;;;;;;;;;5.20;99.90;;;;;;6069784;23;19924;-88
2022/01/27 14:23:48;;;;;;;;;;;5.20;99.90;;;;;;6077994;23;20244;-89
2022/01/27 14:28:48;;;;;;;;;;;5.20;99.90;;;;;;6157192;23;19916;-89
2022/01/27 14:31:13;;;;;;;;;;;5.30;99.90;;;;;;6107882;23;19916;-88
2022/01/27 14:33:41;;;;;;;;;;;5.30;99.90;;;;;;6121662;23;20404;-90
2022/01/27 14:36:09;;;;;;;;;;;5.40;99.90;;;;;;6067920;23;20527;-87
2022/01/27 14:38:35;;;;;;;;;;;5.30;99.90;;;;;;6089751;23;19920;-88
2022/01/27 14:41:08;;;;;;;;;;;5.30;99.90;;;;;;6099527;23;19973;-89
2022/01/27 14:43:39;;;;;;;;;;;5.30;99.90;;;;;;6124985;23;20336;-89
2022/01/27 14:46:26;;;;;;;;;;;5.30;99.90;;;;;;6110711;23;20359;-89
2022/01/27 14:48:59;;;;;;;;;;;5.40;99.90;;;;;;6118617;23;19988;-89
2022/01/27 14:51:55;;;;;;;;;;;5.30;99.90;;;;;;6101969;23;20368;-90
2022/01/27 14:54:20;;;;;;;;;;;5.40;99.90;;;;;;6127524;23;20019;-90
2022/01/27 14:56:46;;;;;;;;;;;5.40;99.90;;;;;;6139700;23;19944;-89
2022/01/27 14:59:12;;;;;;;;;;;5.40;99.90;;;;;;6101324;23;20285;-89
2022/01/27 15:01:42;;;;;;;;;;;5.50;99.90;;;;;;6096060;23;19913;-91
2022/01/27 15:04:07;;;;;;;;;;;5.50;99.90;;;;;;6134820;23;19919;-89
2022/01/27 15:06:58;;;;;;;;;;;5.60;99.90;;;;;;6121836;23;19912;-90
2022/01/27 15:09:50;;;;;;;;;;;5.60;99.90;;;;;;6137305;23;20819;-90
2022/01/27 15:12:15;;;;;;;;;;;5.60;99.90;;;;;;6166276;23;19919;-89
2022/01/27 15:20:28;;;;;;;;;;;5.60;99.90;;;;;;6100717;23;21490;-88
2022/01/27 15:22:54;;;;;;;;;;;5.60;99.90;;;;;;6127165;23;19974;-87
2022/01/27 15:25:23;;;;;;;;;;;5.70;99.90;;;;;;6113825;23;20432;-88
2022/01/27 15:27:49;;;;;;;;;;;5.60;99.90;;;;;;6114177;23;19992;-88
2022/01/27 15:30:15;;;;;;;;;;;5.70;99.90;;;;;;6117043;23;20456;-88
2022/01/27 15:32:44;;;;;;;;;;;5.70;99.90;;;;;;6104413;23;19963;-91
2022/01/27 15:35:12;;;;;;;;;;;5.70;99.90;;;;;;6114679;23;20195;-88
2022/01/27 15:37:43;;;;;;;;;;;5.70;99.90;;;;;;6117483;23;20365;-88
2022/01/27 15:40:15;;;;;;;;;;;5.70;99.90;;;;;;6154350;23;19913;-89
2022/01/27 15:42:41;;;;;;;;;;;5.70;99.90;;;;;;6116657;23;19909;-88
2022/01/27 15:45:08;;;;;;;;;;;5.80;99.90;;;;;;6121255;23;19947;-87
2022/01/27 15:47:36;;;;;;;;;;;5.80;99.90;;;;;;6145824;23;19908;-88
2022/01/27 15:50:05;;;;;;;;;;;5.80;99.90;;;;;;6111167;23;19912;-89
2022/01/27 15:52:33;;;;;;;;;;;5.80;99.90;;;;;;6086442;23;20288;-89
2022/01/27 15:55:03;;;;;;;;;;;5.80;99.90;;;;;;6106648;23;19916;-89
2022/01/27 15:57:29;;;;;;;;;;;5.80;99.90;;;;;;6125056;23;20124;-87
2022/01/27 15:59:55;;;;;;;;;;;5.80;99.90;;;;;;6116769;23;20588;-87
2022/01/27 16:02:30;;;;;;;;;;;5.80;99.90;;;;;;6116584;23;19917;-88
2022/01/27 16:04:55;;;;;;;;;;;5.80;99.90;;;;;;6119146;23;19920;-87
2022/01/27 16:07:21;;;;;;;;;;;5.90;99.90;;;;;;6143912;23;20288;-86